Time;durP1;ratioP1;P1;durP2;ratioP2;P2;SDS_P1;SDS_P2;PMS_P1;PMS_P2;Temp;Humidity;BMP_temperature;BMP_pressure;BME280_temperature;BME280_humidity;BME280_pressure;Samples;Min_cycle;Max_cycle;Signal;HPM_P1;HPM_P2
2022/07/07 00:00:07;;;;;;;7.78;4.63;;;20.50;96.90;;;;;;5053967;28;20418;-88
2022/07/07 00:02:33;;;;;;;7.72;4.32;;;20.60;97.00;;;;;;5037621;28;20067;-88
2022/07/07 00:05:09;;;;;;;8.48;3.80;;;20.50;97.00;;;;;;5036802;28;20021;-91
2022/07/07 00:07:35;;;;;;;6.95;3.90;;;20.50;97.10;;;;;;5053641;28;20063;-87
2022/07/07 00:10:01;;;;;;;7.18;4.20;;;20.50;97.20;;;;;;5061708;28;20045;-89
2022/07/07 00:12:27;;;;;;;7.95;4.18;;;20.50;97.30;;;;;;5017616;28;20029;-88
2022/07/07 00:14:53;;;;;;;7.07;4.15;;;20.40;97.40;;;;;;5034293;28;20033;-87
2022/07/07 00:17:18;;;;;;;7.38;4.50;;;20.40;97.50;;;;;;4986212;28;20026;-88
2022/07/07 00:19:44;;;;;;;6.70;3.95;;;20.40;97.70;;;;;;5037317;28;20075;-89
2022/07/07 00:22:10;;;;;;;7.80;4.10;;;20.40;97.80;;;;;;5019750;28;20068;-89
2022/07/07 00:24:35;;;;;;;8.07;4.53;;;20.30;97.90;;;;;;5019911;28;20040;-89
2022/07/07 00:27:01;;;;;;;8.35;4.72;;;20.30;98.10;;;;;;5019729;28;20041;-89
2022/07/07 00:29:27;;;;;;;6.97;3.85;;;20.30;98.20;;;;;;5019819;28;20029;-89
2022/07/07 00:31:52;;;;;;;7.80;4.25;;;20.30;98.30;;;;;;5019186;28;20125;-87
2022/07/07 00:34:18;;;;;;;8.30;4.80;;;20.30;98.50;;;;;;5002791;28;20064;-89
2022/07/07 00:36:44;;;;;;;7.43;4.40;;;20.30;98.70;;;;;;5003135;28;20037;-87
2022/07/07 00:39:10;;;;;;;7.68;4.38;;;20.30;98.80;;;;;;4987015;28;20033;-87
2022/07/07 00:41:36;;;;;;;7.18;4.75;;;20.30;99.00;;;;;;5003041;28;20030;-87
2022/07/07 00:44:01;;;;;;;8.85;5.43;;;20.30;99.20;;;;;;5003525;28;20458;-88
2022/07/07 00:46:38;;;;;;;8.80;4.88;;;20.30;99.30;;;;;;5018843;28;20029;-88
2022/07/07 00:49:03;;;;;;;9.75;5.32;;;20.30;99.40;;;;;;5019234;28;20029;-88
2022/07/07 00:51:29;;;;;;;10.45;5.80;;;20.30;99.50;;;;;;4986306;28;20036;-88
2022/07/07 00:53:55;;;;;;;8.32;5.25;;;20.30;99.60;;;;;;5018988;28;20040;-88
2022/07/07 00:56:21;;;;;;;9.85;5.63;;;20.30;99.60;;;;;;5019081;28;20124;-88
2022/07/07 00:58:46;;;;;;;8.98;5.13;;;20.30;99.70;;;;;;5019342;28;20065;-89
2022/07/07 01:01:12;;;;;;;8.75;5.50;;;20.30;99.90;;;;;;5018998;28;20033;-88
2022/07/07 01:03:37;;;;;;;9.18;5.43;;;20.30;99.90;;;;;;4986724;28;20032;-89
2022/07/07 01:06:04;;;;;;;8.77;5.90;;;20.30;99.90;;;;;;5019412;28;20022;-88
2022/07/07 01:08:30;;;;;;;7.90;5.57;;;20.30;99.90;;;;;;5019078;28;20026;-90
2022/07/07 01:10:55;;;;;;;8.52;5.38;;;20.30;99.90;;;;;;5000337;28;20481;-89
2022/07/07 01:13:21;;;;;;;7.80;5.10;;;20.20;99.90;;;;;;5038804;28;20033;-88
2022/07/07 01:15:47;;;;;;;8.70;5.60;;;20.20;99.90;;;;;;5057523;28;20087;-90
2022/07/07 01:18:13;;;;;;;6.93;4.78;;;20.20;99.90;;;;;;5072154;28;20465;-89
2022/07/07 01:20:44;;;;;;;7.53;4.97;;;20.20;99.90;;;;;;5056483;28;20033;-89
2022/07/07 01:23:13;;;;;;;10.90;5.72;;;20.20;99.90;;;;;;5038757;28;20021;-90
2022/07/07 01:25:38;;;;;;;8.75;5.15;;;20.20;99.90;;;;;;5054844;28;20123;-91
2022/07/07 01:28:04;;;;;;;9.75;5.25;;;20.20;99.90;;;;;;5037614;28;20102;-91
2022/07/07 01:30:30;;;;;;;7.55;5.13;;;20.30;99.90;;;;;;5055169;28;20106;-91
2022/07/07 01:32:56;;;;;;;9.63;5.55;;;20.30;99.90;;;;;;5071749;28;20029;-91
2022/07/07 01:35:21;;;;;;;9.85;5.70;;;20.30;99.90;;;;;;5055065;28;20029;-91
2022/07/07 01:37:47;;;;;;;9.13;5.40;;;20.30;99.90;;;;;;5054897;28;20385;-91
2022/07/07 01:40:13;;;;;;;9.10;5.93;;;20.30;99.90;;;;;;5038520;28;20507;-90
2022/07/07 01:42:38;;;;;;;8.18;5.78;;;20.30;99.90;;;;;;5056181;28;20033;-89
2022/07/07 01:45:04;;;;;;;9.35;5.75;;;20.30;99.90;;;;;;5038110;28;20125;-90
2022/07/07 01:47:31;;;;;;;9.18;5.53;;;20.30;99.90;;;;;;5054435;28;20115;-91
2022/07/07 01:49:56;;;;;;;9.73;5.13;;;20.30;99.90;;;;;;5054539;28;20021;-90
2022/07/07 01:52:22;;;;;;;7.63;5.05;;;20.30;99.90;;;;;;5054664;28;20025;-90
2022/07/07 01:54:48;;;;;;;10.48;4.90;;;20.30;99.90;;;;;;5038114;28;20055;-90
2022/07/07 01:57:14;;;;;;;10.20;4.72;;;20.30;99.90;;;;;;5055013;28;20032;-90
2022/07/07 01:59:40;;;;;;;7.82;4.32;;;20.30;99.90;;;;;;5055818;28;20060;-90
2022/07/07 02:02:06;;;;;;;9.45;4.40;;;20.30;99.90;;;;;;5054653;28;20389;-92
2022/07/07 02:04:32;;;;;;;7.65;4.47;;;20.30;99.90;;;;;;5038027;28;20025;-89
2022/07/07 02:06:58;;;;;;;8.85;4.60;;;20.30;99.90;;;;;;5054797;28;20094;-89
2022/07/07 02:09:23;;;;;;;8.48;4.63;;;20.30;99.90;;;;;;5070727;28;20112;-92
2022/07/07 02:11:49;;;;;;;8.82;4.53;;;20.30;99.90;;;;;;5071313;28;20033;-91
2022/07/07 02:14:15;;;;;;;6.30;4.03;;;20.30;99.90;;;;;;5037835;28;20029;-92
2022/07/07 02:16:41;;;;;;;7.75;3.97;;;20.30;99.90;;;;;;5075163;28;20093;-91
2022/07/07 02:19:07;;;;;;;6.22;3.90;;;20.30;99.90;;;;;;5044054;28;20021;-91
2022/07/07 02:21:33;;;;;;;6.00;3.80;;;20.30;99.90;;;;;;5079921;28;20138;-91
2022/07/07 02:23:59;;;;;;;7.35;3.42;;;20.30;99.90;;;;;;5064347;28;20460;-91
2022/07/07 02:26:25;;;;;;;8.93;4.82;;;20.30;99.90;;;;;;5048199;28;20067;-93
2022/07/07 02:28:54;;;;;;;5.10;3.55;;;20.30;99.90;;;;;;5078275;28;20021;-93
2022/07/07 02:31:20;;;;;;;7.75;3.53;;;20.30;99.90;;;;;;5061051;28;20013;-93
2022/07/07 02:33:45;;;;;;;6.00;3.33;;;20.30;99.90;;;;;;5061232;23;20067;-90
2022/07/07 02:36:12;;;;;;;13.88;4.55;;;20.20;99.90;;;;;;4998374;28;20379;-87
2022/07/07 02:38:39;;;;;;;4.82;2.65;;;20.20;99.90;;;;;;4997834;28;20526;-88
2022/07/07 02:41:06;;;;;;;5.65;1.92;;;20.20;99.90;;;;;;4997699;28;20541;-90
2022/07/07 02:43:32;;;;;;;4.25;1.70;;;20.20;99.90;;;;;;4997230;28;20088;-87
2022/07/07 02:45:58;;;;;;;2.42;1.33;;;20.20;99.90;;;;;;4981092;28;20044;-87
2022/07/07 02:48:25;;;;;;;4.38;1.98;;;20.10;99.90;;;;;;4997026;28;20026;-88
2022/07/07 02:50:52;;;;;;;3.15;1.40;;;20.10;99.90;;;;;;4997175;28;20482;-88
2022/07/07 02:53:18;;;;;;;3.47;1.60;;;20.10;99.90;;;;;;4996998;28;20322;-88
2022/07/07 02:56:36;;;;;;;3.58;1.50;;;20.10;99.90;;;;;;4993381;28;20535;-89
2022/07/07 03:02:24;;;;;;;3.63;1.30;;;20.00;99.90;;;;;;5013487;28;20411;-88
2022/07/07 03:04:50;;;;;;;4.35;1.67;;;19.90;99.90;;;;;;4997167;28;20049;-87
2022/07/07 03:07:16;;;;;;;2.50;1.58;;;19.90;99.90;;;;;;5013241;28;20026;-89
2022/07/07 03:09:41;;;;;;;2.90;1.63;;;19.90;99.90;;;;;;4996887;28;20030;-89
2022/07/07 03:12:07;;;;;;;3.63;1.65;;;19.90;99.90;;;;;;4996923;28;20554;-89
2022/07/07 03:14:33;;;;;;;6.05;1.58;;;19.80;99.90;;;;;;4996741;28;20021;-89
2022/07/07 03:16:59;;;;;;;3.63;1.50;;;19.80;99.90;;;;;;4996609;28;20026;-88
2022/07/07 03:19:24;;;;;;;5.00;1.60;;;19.80;99.90;;;;;;5013193;28;20521;-88
2022/07/07 03:21:50;;;;;;;4.68;1.98;;;19.80;99.90;;;;;;4996714;28;20061;-89
2022/07/07 03:24:16;;;;;;;2.90;1.67;;;19.70;99.90;;;;;;4996726;28;20037;-89
2022/07/07 03:26:41;;;;;;;3.70;1.63;;;19.70;99.90;;;;;;4996563;28;20034;-88
2022/07/07 03:29:07;;;;;;;2.83;1.52;;;19.70;99.90;;;;;;4980299;28;20034;-89
2022/07/07 03:31:32;;;;;;;6.70;2.00;;;19.60;99.90;;;;;;4996441;28;20018;-88
2022/07/07 03:33:58;;;;;;;4.13;1.90;;;19.60;99.90;;;;;;4985868;28;20552;-88
2022/07/07 03:36:24;;;;;;;2.88;1.80;;;19.60;99.90;;;;;;5049060;28;20540;-88
2022/07/07 03:38:50;;;;;;;3.40;1.95;;;19.50;99.90;;;;;;5049083;28;20390;-88
2022/07/07 03:41:15;;;;;;;6.75;1.92;;;19.50;99.90;;;;;;5049144;28;20077;-88
2022/07/07 03:43:41;;;;;;;4.40;2.00;;;19.40;99.90;;;;;;5032497;28;20029;-88
2022/07/07 03:46:07;;;;;;;5.13;2.42;;;19.40;99.90;;;;;;5032272;28;20029;-89
2022/07/07 03:48:33;;;;;;;3.40;1.85;;;19.30;99.90;;;;;;5047012;28;20030;-88
2022/07/07 03:50:59;;;;;;;6.75;2.65;;;19.30;99.90;;;;;;5050172;28;20032;-88
2022/07/07 03:53:27;;;;;;;4.13;2.20;;;19.30;99.90;;;;;;5052980;28;20025;-89
2022/07/07 03:55:53;;;;;;;4.88;2.97;;;19.30;99.90;;;;;;5052849;28;20029;-88
2022/07/07 03:58:19;;;;;;;2.58;1.90;;;19.20;99.90;;;;;;5052979;28;20063;-88
2022/07/07 04:00:44;;;;;;;6.22;2.10;;;19.10;99.90;;;;;;5050785;28;20017;-88
2022/07/07 04:04:06;;;;;;;4.43;2.35;;;19.10;99.90;;;;;;5052635;28;20029;-88
2022/07/07 04:06:36;;;;;;;4.13;2.53;;;19.10;99.90;;;;;;5034746;28;20043;-88
2022/07/07 04:12:47;;;;;;;2.88;2.10;;;19.00;99.90;;;;;;4983002;28;20096;-88
2022/07/07 04:15:13;;;;;;;3.47;2.25;;;19.00;99.90;;;;;;4979391;28;20041;-88
2022/07/07 04:17:39;;;;;;;4.75;2.40;;;19.00;99.90;;;;;;4994595;28;20042;-88
2022/07/07 04:20:08;;;;;;;5.53;2.33;;;19.00;99.90;;;;;;5036118;28;20034;-88
2022/07/07 04:22:34;;;;;;;6.90;2.67;;;18.90;99.90;;;;;;5052850;28;20021;-88
2022/07/07 04:24:59;;;;;;;5.18;2.47;;;19.00;99.90;;;;;;5068978;28;20037;-88
2022/07/07 04:27:26;;;;;;;6.25;2.70;;;19.00;99.90;;;;;;5018881;28;20029;-88
2022/07/07 04:29:51;;;;;;;5.80;2.75;;;18.90;99.90;;;;;;5035655;28;20029;-88
2022/07/07 04:32:17;;;;;;;6.05;2.50;;;18.90;99.90;;;;;;5050839;28;20030;-88
2022/07/07 04:35:51;;;;;;;;;;;;;;;;;;;;;
2022/07/07 04:38:38;;;;;;;6.40;2.30;;;18.90;99.90;;;;;;4943262;28;20030;-88
2022/07/07 04:41:04;;;;;;;7.25;2.00;;;18.90;99.90;;;;;;4955083;28;20121;-88
2022/07/07 04:43:29;;;;;;;4.18;2.17;;;18.80;99.90;;;;;;4989835;28;20487;-88
2022/07/07 04:45:55;;;;;;;7.70;1.80;;;18.80;99.90;;;;;;5001907;28;20030;-89
2022/07/07 04:48:20;;;;;;;2.83;1.73;;;18.80;99.90;;;;;;5018886;28;20124;-88
2022/07/07 04:50:46;;;;;;;3.80;1.80;;;18.90;99.90;;;;;;5018338;28;20059;-88
2022/07/07 04:53:21;;;;;;;3.35;1.60;;;18.90;99.90;;;;;;5006078;28;20037;-89
2022/07/07 04:55:46;;;;;;;4.18;1.50;;;18.90;99.90;;;;;;5035309;28;20048;-89
2022/07/07 04:58:12;;;;;;;4.18;2.13;;;18.90;99.90;;;;;;5018971;28;20471;-88
2022/07/07 05:00:40;;;;;;;4.88;1.85;;;19.00;99.90;;;;;;5038185;28;20112;-89
2022/07/07 05:03:09;;;;;;;4.38;1.50;;;18.90;99.90;;;;;;5018784;28;20029;-88
2022/07/07 05:05:34;;;;;;;4.18;1.83;;;18.90;99.90;;;;;;5016956;28;20014;-88
2022/07/07 05:08:00;;;;;;;8.13;2.28;;;19.00;99.90;;;;;;5015039;28;20026;-88
2022/07/07 05:10:27;;;;;;;4.63;2.05;;;19.00;99.90;;;;;;5015131;28;20034;-88
2022/07/07 05:12:56;;;;;;;3.90;1.40;;;19.00;99.90;;;;;;5012481;28;20022;-88
2022/07/07 05:15:21;;;;;;;4.47;1.52;;;19.00;99.90;;;;;;5015192;28;20104;-88
2022/07/07 05:17:47;;;;;;;5.28;1.50;;;19.00;99.90;;;;;;5027285;28;20104;-87
2022/07/07 05:20:22;;;;;;;4.72;1.67;;;19.00;99.90;;;;;;5010905;28;20018;-86
2022/07/07 05:22:48;;;;;;;5.75;1.45;;;18.90;99.90;;;;;;5014791;28;20037;-87
2022/07/07 05:25:16;;;;;;;3.95;1.42;;;18.90;99.90;;;;;;4998882;28;20476;-87
2022/07/07 05:27:44;;;;;;;6.47;1.70;;;18.90;99.90;;;;;;4997769;28;20101;-88
2022/07/07 05:30:11;;;;;;;3.83;1.15;;;19.00;99.90;;;;;;5033574;28;20030;-89
2022/07/07 05:32:37;;;;;;;8.57;2.03;;;19.00;99.90;;;;;;5000469;28;20057;-88
2022/07/07 05:35:03;;;;;;;5.72;1.20;;;18.90;99.90;;;;;;4999863;28;20050;-89
2022/07/07 05:37:30;;;;;;;5.88;1.23;;;18.90;99.90;;;;;;4998464;28;20041;-88
2022/07/07 05:39:56;;;;;;;5.22;1.30;;;18.90;99.90;;;;;;4982781;28;20018;-89
2022/07/07 05:42:21;;;;;;;6.22;1.60;;;18.90;99.90;;;;;;4982210;28;20494;-88
2022/07/07 05:44:47;;;;;;;8.35;2.15;;;18.90;99.90;;;;;;4998257;28;20026;-88
2022/07/07 05:47:13;;;;;;;6.60;1.80;;;18.90;99.90;;;;;;5014962;28;20450;-88
2022/07/07 05:49:38;;;;;;;8.30;1.58;;;18.90;99.90;;;;;;4998254;28;20026;-88
2022/07/07 05:52:05;;;;;;;6.50;1.23;;;18.90;99.90;;;;;;4998059;28;20049;-88
2022/07/07 05:54:30;;;;;;;9.38;1.60;;;18.90;99.90;;;;;;4997327;28;20023;-88
2022/07/07 05:56:56;;;;;;;8.70;1.50;;;18.90;99.90;;;;;;5023148;28;20080;-88
2022/07/07 05:59:24;;;;;;;6.80;1.58;;;18.80;99.90;;;;;;4998175;28;20371;-88
2022/07/07 06:01:49;;;;;;;7.63;1.65;;;18.80;99.90;;;;;;4997895;28;20034;-89
2022/07/07 06:04:15;;;;;;;9.32;2.78;;;18.80;99.90;;;;;;4995951;28;20026;-89
2022/07/07 06:06:59;;;;;;;8.65;2.33;;;18.90;99.90;;;;;;4998098;28;20467;-89
2022/07/07 06:09:25;;;;;;;9.68;1.95;;;18.90;99.90;;;;;;5015226;28;20513;-88
2022/07/07 06:11:51;;;;;;;8.68;1.80;;;18.90;99.90;;;;;;5015288;28;20108;-88
2022/07/07 06:14:17;;;;;;;8.27;1.80;;;18.90;99.90;;;;;;4996489;28;20022;-88
2022/07/07 06:16:42;;;;;;;8.57;2.38;;;18.90;99.90;;;;;;4998444;28;20033;-88
2022/07/07 06:19:10;;;;;;;9.80;1.70;;;18.90;99.90;;;;;;4999243;28;20025;-87
2022/07/07 06:21:41;;;;;;;12.05;2.08;;;18.90;99.90;;;;;;4984980;28;20018;-88
2022/07/07 06:24:07;;;;;;;7.57;1.60;;;18.80;99.90;;;;;;5015379;28;20014;-88
2022/07/07 06:26:32;;;;;;;8.40;1.77;;;18.90;99.90;;;;;;5015072;28;20037;-88
2022/07/07 06:28:58;;;;;;;8.45;1.75;;;18.90;99.90;;;;;;5010819;28;20384;-88
2022/07/07 06:31:24;;;;;;;5.22;1.30;;;18.80;99.90;;;;;;4994425;28;20022;-88
2022/07/07 06:33:50;;;;;;;4.60;1.25;;;18.80;99.90;;;;;;5012712;28;20121;-88
2022/07/07 06:36:16;;;;;;;5.63;1.50;;;18.80;99.90;;;;;;5053222;28;20024;-88
2022/07/07 06:38:42;;;;;;;9.55;3.00;;;18.80;99.90;;;;;;5020306;28;20043;-87
2022/07/07 06:41:08;;;;;;;5.28;1.30;;;18.70;99.90;;;;;;5055246;28;20020;-87
2022/07/07 06:43:33;;;;;;;5.97;1.23;;;18.70;99.90;;;;;;5053302;28;20035;-86
2022/07/07 06:45:59;;;;;;;7.10;1.30;;;18.80;99.90;;;;;;5035945;28;20113;-87
2022/07/07 06:48:25;;;;;;;6.53;1.63;;;18.70;99.90;;;;;;5050127;28;20025;-88
2022/07/07 06:50:50;;;;;;;7.63;1.92;;;18.70;99.90;;;;;;5036054;28;20021;-88
2022/07/07 06:53:17;;;;;;;8.13;1.48;;;18.70;99.90;;;;;;5019489;28;20033;-88
2022/07/07 06:55:43;;;;;;;8.00;1.60;;;18.80;99.90;;;;;;5019724;28;20025;-87
2022/07/07 06:58:10;;;;;;;8.02;2.13;;;18.70;99.90;;;;;;5036559;28;20041;-87
2022/07/07 07:00:35;;;;;;;7.65;2.17;;;18.80;99.90;;;;;;5019775;28;20421;-87
2022/07/07 07:03:01;;;;;;;8.05;1.63;;;18.80;99.90;;;;;;5015914;28;20475;-87
2022/07/07 07:05:27;;;;;;;5.15;1.10;;;18.80;99.90;;;;;;5018822;28;20084;-87
2022/07/07 07:07:53;;;;;;;5.70;1.50;;;18.80;99.90;;;;;;5010087;28;20530;-87
2022/07/07 07:10:18;;;;;;;10.90;1.98;;;18.90;99.90;;;;;;5034852;28;20128;-86
2022/07/07 07:12:44;;;;;;;5.43;1.30;;;18.80;99.90;;;;;;5032401;28;20030;-87
2022/07/07 07:15:31;;;;;;;9.23;1.70;;;18.90;99.90;;;;;;5048058;28;20127;-86
2022/07/07 07:17:57;;;;;;;6.97;1.67;;;18.90;99.90;;;;;;5061914;28;20017;-85
2022/07/07 07:20:23;;;;;;;6.78;1.70;;;18.90;99.90;;;;;;5046996;28;20032;-86
2022/07/07 07:22:48;;;;;;;4.28;0.95;;;18.90;99.90;;;;;;5020460;28;20382;-85
2022/07/07 07:25:16;;;;;;;7.82;1.75;;;18.90;99.90;;;;;;5061608;28;20029;-85
2022/07/07 07:27:42;;;;;;;5.15;1.30;;;19.00;99.90;;;;;;5058972;28;20628;-85
2022/07/07 07:30:12;;;;;;;6.22;1.10;;;19.00;99.90;;;;;;5022687;28;20025;-85
2022/07/07 07:32:37;;;;;;;4.50;1.10;;;19.00;99.90;;;;;;5021130;28;20070;-85
2022/07/07 07:35:03;;;;;;;10.75;1.30;;;19.00;99.90;;;;;;5002091;28;20042;-86
2022/07/07 07:37:29;;;;;;;6.43;1.50;;;19.00;99.90;;;;;;4988930;28;20034;-86
2022/07/07 07:39:55;;;;;;;4.70;1.02;;;19.00;99.90;;;;;;4997122;28;20037;-85
2022/07/07 07:42:20;;;;;;;2.40;0.82;;;19.00;99.90;;;;;;5019820;28;20034;-85
2022/07/07 07:47:30;;;;;;;2.65;0.80;;;19.10;99.90;;;;;;5017250;28;20045;-86
2022/07/07 07:49:56;;;;;;;3.38;1.17;;;19.10;99.90;;;;;;5000737;28;20125;-86
2022/07/07 07:52:22;;;;;;;5.57;1.48;;;19.10;99.90;;;;;;5004348;28;20120;-86
2022/07/07 07:54:47;;;;;;;3.67;1.00;;;19.10;99.90;;;;;;5017597;28;20033;-85
2022/07/07 07:57:13;;;;;;;4.65;1.25;;;19.10;99.90;;;;;;4986452;28;20022;-85
2022/07/07 07:59:39;;;;;;;5.15;1.30;;;19.10;99.90;;;;;;5012865;28;20407;-85
2022/07/07 08:02:04;;;;;;;4.18;1.05;;;19.10;99.90;;;;;;5006848;28;20157;-86
2022/07/07 08:04:30;;;;;;;6.10;1.10;;;19.20;99.90;;;;;;5006917;28;20053;-85
2022/07/07 08:06:56;;;;;;;6.32;1.70;;;19.20;99.90;;;;;;4993466;28;20037;-85
2022/07/07 08:09:21;;;;;;;7.15;1.67;;;19.20;99.90;;;;;;5006522;28;20026;-85
2022/07/07 08:11:47;;;;;;;4.55;1.20;;;19.20;99.90;;;;;;4994947;28;20057;-85
2022/07/07 08:14:13;;;;;;;4.70;1.20;;;19.30;99.90;;;;;;4990782;28;20506;-85
2022/07/07 08:16:38;;;;;;;4.05;1.25;;;19.30;99.90;;;;;;5006163;28;20467;-85
2022/07/07 08:19:04;;;;;;;8.20;1.85;;;19.30;99.90;;;;;;4987368;28;20027;-85
2022/07/07 08:21:30;;;;;;;6.45;1.30;;;19.30;99.90;;;;;;4995161;28;20029;-85
2022/07/07 08:23:55;;;;;;;7.10;1.50;;;19.30;99.90;;;;;;4994034;28;20129;-84
2022/07/07 08:26:27;;;;;;;5.57;1.25;;;19.40;99.90;;;;;;4995166;28;20178;-85
2022/07/07 08:29:11;;;;;;;5.50;1.58;;;19.40;99.90;;;;;;5011247;28;20057;-86
2022/07/07 08:31:37;;;;;;;6.15;1.27;;;19.40;99.90;;;;;;4996433;28;20022;-86
2022/07/07 08:34:03;;;;;;;9.20;1.50;;;19.50;99.90;;;;;;4998646;28;20158;-86
2022/07/07 08:36:30;;;;;;;11.73;1.80;;;19.50;99.90;;;;;;5052214;28;20044;-86
2022/07/07 08:38:57;;;;;;;8.13;1.70;;;19.50;99.90;;;;;;5026595;28;20425;-86
2022/07/07 08:41:23;;;;;;;8.52;1.55;;;19.50;99.90;;;;;;5070269;28;20021;-85
2022/07/07 08:43:50;;;;;;;4.15;1.02;;;19.60;99.90;;;;;;5019107;28;20068;-83
2022/07/07 08:46:16;;;;;;;3.53;1.00;;;19.60;99.90;;;;;;5052049;28;20033;-84
2022/07/07 08:48:42;;;;;;;6.03;1.35;;;19.60;99.90;;;;;;5067571;28;20041;-84
2022/07/07 08:51:08;;;;;;;8.77;1.40;;;19.60;99.90;;;;;;5054840;28;20036;-83
2022/07/07 08:53:36;;;;;;;4.38;1.20;;;19.60;99.90;;;;;;5054611;28;20021;-84
2022/07/07 08:56:07;;;;;;;3.78;1.02;;;19.50;99.90;;;;;;5052947;28;20021;-83
2022/07/07 08:58:37;;;;;;;6.40;1.75;;;19.60;99.90;;;;;;5071151;28;20017;-83
2022/07/07 09:01:04;;;;;;;3.92;0.90;;;19.60;99.90;;;;;;5055476;28;20032;-83
2022/07/07 09:06:54;;;;;;;5.05;1.00;;;19.70;99.90;;;;;;5051462;28;20450;-83
2022/07/07 09:09:49;;;;;;;2.88;0.80;;;19.80;99.90;;;;;;5071134;28;20025;-83
2022/07/07 09:12:16;;;;;;;2.58;0.88;;;19.80;99.90;;;;;;5071394;28;20025;-83
2022/07/07 09:14:47;;;;;;;3.13;1.02;;;19.90;99.90;;;;;;5054615;28;20091;-83
2022/07/07 09:17:31;;;;;;;1.77;0.63;;;19.90;99.90;;;;;;5072905;28;20455;-83
2022/07/07 09:20:15;;;;;;;2.58;0.63;;;19.90;99.90;;;;;;5044530;28;20021;-86
2022/07/07 09:22:54;;;;;;;4.38;1.20;;;19.90;99.90;;;;;;5022588;28;20498;-86
2022/07/07 09:25:23;;;;;;;4.70;1.75;;;20.00;99.90;;;;;;5033448;28;20021;-86
2022/07/07 09:28:00;;;;;;;2.72;1.15;;;20.00;99.90;;;;;;5037910;28;20035;-85
2022/07/07 09:30:51;;;;;;;2.40;0.60;;;20.00;99.90;;;;;;5070984;28;20028;-86
2022/07/07 09:33:22;;;;;;;3.25;1.05;;;20.00;99.90;;;;;;5054976;28;20032;-85
2022/07/07 09:38:35;;;;;;;3.10;0.90;;;20.10;99.90;;;;;;5040630;28;20044;-86
2022/07/07 09:41:17;;;;;;;3.92;0.90;;;20.10;99.90;;;;;;5047371;28;20025;-86
2022/07/07 09:43:51;;;;;;;3.22;0.75;;;20.20;99.90;;;;;;5068246;28;20453;-86
2022/07/07 09:46:34;;;;;;;2.72;0.60;;;20.20;99.90;;;;;;5070434;28;20023;-85
2022/07/07 09:49:02;;;;;;;2.83;0.77;;;20.20;99.90;;;;;;5052919;28;20027;-85
2022/07/07 09:51:34;;;;;;;3.58;1.30;;;20.30;99.90;;;;;;5053148;28;20024;-86
2022/07/07 09:54:16;;;;;;;2.53;0.65;;;20.30;99.90;;;;;;5045666;28;20033;-86
2022/07/07 09:56:44;;;;;;;4.15;0.77;;;20.30;99.90;;;;;;5035047;28;20026;-86
2022/07/07 09:59:12;;;;;;;4.20;1.10;;;20.20;99.90;;;;;;5065775;28;20025;-86
2022/07/07 10:01:41;;;;;;;3.85;1.10;;;20.20;99.90;;;;;;5056969;28;20177;-86
2022/07/07 10:04:13;;;;;;;3.38;0.75;;;20.20;99.90;;;;;;5055366;28;20021;-87
2022/07/07 10:06:40;;;;;;;2.35;0.75;;;20.20;99.90;;;;;;5086846;28;20025;-86
2022/07/07 10:09:18;;;;;;;4.97;1.10;;;20.30;99.90;;;;;;5061181;28;20060;-86
2022/07/07 10:11:52;;;;;;;2.97;0.85;;;20.20;99.90;;;;;;5074936;28;20017;-86
2022/07/07 10:14:27;;;;;;;3.97;0.90;;;20.20;99.90;;;;;;5094785;28;20218;-86
2022/07/07 10:17:02;;;;;;;6.20;0.80;;;20.20;99.90;;;;;;5074644;28;20075;-86
2022/07/07 10:19:29;;;;;;;4.50;1.00;;;20.20;99.90;;;;;;5060089;28;20024;-86
2022/07/07 10:21:56;;;;;;;3.78;0.70;;;20.30;99.90;;;;;;5076040;28;20017;-87
2022/07/07 10:24:25;;;;;;;3.15;0.90;;;20.30;99.90;;;;;;5077210;28;20039;-87
2022/07/07 10:26:55;;;;;;;3.30;0.82;;;20.30;99.90;;;;;;5076221;28;20482;-86
2022/07/07 10:29:45;;;;;;;3.30;1.05;;;20.40;99.90;;;;;;5056581;28;20021;-86
2022/07/07 10:32:16;;;;;;;4.40;1.10;;;20.40;99.90;;;;;;5065399;28;20084;-86
2022/07/07 10:34:54;;;;;;;3.38;0.98;;;20.40;99.90;;;;;;5072126;28;20112;-86
2022/07/07 10:37:22;;;;;;;3.60;0.90;;;20.40;99.90;;;;;;5081426;28;20021;-86
2022/07/07 10:39:50;;;;;;;5.68;1.60;;;20.40;99.90;;;;;;5055233;28;20021;-86
2022/07/07 10:42:16;;;;;;;5.47;2.20;;;20.40;99.90;;;;;;5067468;28;20047;-86
2022/07/07 10:44:56;;;;;;;5.28;1.80;;;20.40;99.90;;;;;;5044435;28;20021;-85
2022/07/07 10:47:22;;;;;;;3.85;1.63;;;20.40;99.90;;;;;;5054357;28;20025;-85
2022/07/07 10:49:51;;;;;;;3.95;1.08;;;20.40;99.90;;;;;;5053523;28;20029;-85
2022/07/07 10:52:21;;;;;;;5.53;1.50;;;20.50;99.90;;;;;;5058820;28;20385;-85
2022/07/07 10:54:55;;;;;;;3.50;1.17;;;20.50;99.90;;;;;;5057659;28;20028;-85
2022/07/07 10:57:27;;;;;;;3.58;1.05;;;20.50;99.90;;;;;;5053750;28;20032;-85
2022/07/07 10:59:56;;;;;;;3.15;1.08;;;20.50;99.90;;;;;;5070984;28;20025;-85
2022/07/07 11:02:37;;;;;;;2.75;1.08;;;20.60;99.90;;;;;;5061571;28;20381;-86
2022/07/07 11:07:56;;;;;;;3.85;1.10;;;20.70;99.90;;;;;;5114522;22;19920;-81
2022/07/07 11:10:42;;;;;;;1.67;0.63;;;20.80;99.90;;;;;;5073612;28;20025;-81
2022/07/07 11:13:21;;;;;;;5.18;1.05;;;20.90;99.90;;;;;;5098814;28;20504;-81
2022/07/07 11:16:16;;;;;;;2.35;0.80;;;20.90;99.90;;;;;;5074130;28;20024;-83
2022/07/07 11:18:43;;;;;;;3.60;0.93;;;21.00;99.90;;;;;;5058821;28;20024;-82
2022/07/07 11:21:25;;;;;;;;;;;;;;;;;;;;;
2022/07/07 11:27:48;;;;;;;;;;;;;;;;;;;;;
2022/07/07 11:30:43;;;;;;;3.05;1.27;;;21.00;99.90;;;;;;5079859;28;20108;-90
2022/07/07 11:33:33;;;;;;;3.25;1.10;;;21.00;99.90;;;;;;5068068;28;20032;-90
2022/07/07 11:36:40;;;;;;;;;;;;;;;;;;;;;
2022/07/07 11:39:28;;;;;;;;;;;;;;;;;;;;;
2022/07/07 11:42:12;;;;;;;2.53;1.17;;;21.00;99.90;;;;;;5073266;28;20048;-92
2022/07/07 11:44:44;;;;;;;7.28;2.10;;;21.10;99.90;;;;;;5122665;28;20017;-89
2022/07/07 11:47:16;;;;;;;5.97;1.80;;;21.10;99.90;;;;;;5073334;28;20408;-89
2022/07/07 11:50:02;;;;;;;2.25;1.00;;;21.10;99.90;;;;;;5061516;28;20059;-90
2022/07/07 11:52:41;;;;;;;;;;;;;;;;;;;;;
2022/07/07 11:59:03;;;;;;;4.82;1.42;;;21.00;99.90;;;;;;5069752;28;20023;-89
2022/07/07 12:02:00;;;;;;;4.13;1.48;;;21.00;99.90;;;;;;4997497;28;20026;-91
2022/07/07 12:11:03;;;;;;;;;;;;;;;;;;;;;
2022/07/07 12:13:57;;;;;;;5.40;1.70;;;21.00;99.90;;;;;;5078519;28;20035;-90
2022/07/07 12:17:03;;;;;;;2.50;1.20;;;21.00;99.90;;;;;;5075303;28;20393;-90
2022/07/07 12:20:06;;;;;;;4.47;1.20;;;21.00;99.90;;;;;;5036154;28;20488;-90
2022/07/07 12:22:55;;;;;;;3.40;1.20;;;21.00;99.90;;;;;;4986029;28;20035;-90
2022/07/07 12:25:54;;;;;;;;;;;;;;;;;;;;;
2022/07/07 12:28:51;;;;;;;4.97;1.40;;;21.00;99.90;;;;;;5078454;28;20104;-91
2022/07/07 12:34:33;;;;;;;;;;;;;;;;;;;;;
2022/07/07 12:37:06;;;;;;;8.88;2.05;;;20.90;99.90;;;;;;5080372;28;20063;-92
2022/07/07 12:39:33;;;;;;;7.97;2.15;;;20.90;99.90;;;;;;5041793;28;20484;-86
2022/07/07 12:41:59;;;;;;;11.70;2.85;;;20.90;99.90;;;;;;5091204;28;20025;-86
2022/07/07 12:44:30;;;;;;;14.30;2.80;;;20.90;99.90;;;;;;5074564;28;20051;-87
2022/07/07 12:46:58;;;;;;;15.55;3.17;;;20.90;99.90;;;;;;5060114;28;20093;-88
2022/07/07 12:49:24;;;;;;;10.48;2.67;;;20.90;99.90;;;;;;5059900;28;20029;-87
2022/07/07 12:51:51;;;;;;;11.25;3.35;;;20.90;99.90;;;;;;5076898;28;20099;-90
2022/07/07 12:54:25;;;;;;;11.60;2.85;;;20.90;99.90;;;;;;5092699;28;20035;-88
2022/07/07 12:57:03;;;;;;;6.70;1.90;;;21.00;99.90;;;;;;5092642;28;20020;-89
2022/07/07 12:59:36;;;;;;;10.25;2.60;;;21.00;99.90;;;;;;5059201;28;20388;-88
2022/07/07 13:02:02;;;;;;;9.32;2.38;;;21.00;99.90;;;;;;5058106;28;20037;-89
2022/07/07 13:04:27;;;;;;;12.75;2.40;;;21.10;99.90;;;;;;5076055;28;20074;-90
2022/07/07 13:06:54;;;;;;;8.93;2.57;;;21.10;99.90;;;;;;5036252;28;1166565;-90
2022/07/07 13:09:20;;;;;;;12.63;3.45;;;21.10;99.90;;;;;;5076695;28;20302;-88
2022/07/07 13:11:49;;;;;;;12.85;2.70;;;21.10;99.90;;;;;;5075150;28;20099;-82
2022/07/07 13:14:16;;;;;;;9.00;2.90;;;21.20;99.90;;;;;;5075256;28;20549;-83
2022/07/07 13:16:42;;;;;;;12.50;3.10;;;21.10;99.90;;;;;;5091499;28;20023;-84
2022/07/07 13:19:08;;;;;;;7.35;2.30;;;21.10;99.90;;;;;;5083016;28;20048;-88
2022/07/07 13:21:33;;;;;;;7.97;2.30;;;21.20;99.90;;;;;;5077782;28;20388;-88
2022/07/07 13:24:04;;;;;;;8.93;2.35;;;21.20;99.90;;;;;;5058363;28;20127;-87
2022/07/07 13:26:46;;;;;;;11.07;2.80;;;21.20;99.90;;;;;;5061935;28;20025;-89
2022/07/07 13:29:16;;;;;;;10.98;2.35;;;21.20;99.90;;;;;;5065889;28;20108;-86
2022/07/07 13:31:49;;;;;;;16.38;2.60;;;21.30;99.90;;;;;;5060749;28;20021;-88
2022/07/07 13:34:16;;;;;;;8.07;2.20;;;21.30;99.90;;;;;;5060645;28;20140;-89
2022/07/07 13:36:52;;;;;;;;;;;;;;;;;;;;;
2022/07/07 13:39:18;;;;;;;8.32;2.17;;;21.40;99.90;;;;;;5063205;28;20024;-88
2022/07/07 13:41:52;;;;;;;10.70;2.47;;;21.50;99.90;;;;;;5042910;28;20059;-89
2022/07/07 13:44:18;;;;;;;9.98;2.40;;;21.50;99.90;;;;;;5061469;28;20043;-88
2022/07/07 13:46:52;;;;;;;9.75;2.35;;;21.50;99.90;;;;;;5060175;28;20127;-88